Time;durP1;ratioP1;P1;durP2;ratioP2;P2;SDS_P1;SDS_P2;PMS_P1;PMS_P2;Temp;Humidity;BMP_temperature;BMP_pressure;BME280_temperature;BME280_humidity;BME280_pressure;Samples;Min_cycle;Max_cycle;Signal;HPM_P1;HPM_P2
2023/05/23 00:00:16;;;;;;;7.07;5.93;;;16.30;99.90;;;;;;5100242;28;20175;-88
2023/05/23 00:02:45;;;;;;;5.90;5.40;;;16.20;99.90;;;;;;5099165;28;20183;-91
2023/05/23 00:05:16;;;;;;;6.53;5.90;;;16.20;99.90;;;;;;5099031;28;20223;-87
2023/05/23 00:07:46;;;;;;;5.97;5.40;;;16.30;99.90;;;;;;5100479;28;20183;-87
2023/05/23 00:10:15;;;;;;;6.23;5.63;;;16.40;99.90;;;;;;5084349;28;20177;-89
2023/05/23 00:12:41;;;;;;;5.93;5.43;;;16.40;99.90;;;;;;5099871;28;20227;-89
2023/05/23 00:15:09;;;;;;;5.43;5.00;;;16.40;99.90;;;;;;5093963;28;20175;-92
2023/05/23 00:17:36;;;;;;;5.80;5.30;;;16.30;99.90;;;;;;5091921;28;20238;-94
2023/05/23 00:20:03;;;;;;;6.63;5.53;;;16.70;99.90;;;;;;5091329;28;20173;-89
2023/05/23 00:22:29;;;;;;;6.30;5.70;;;17.00;99.90;;;;;;5099858;28;20170;-90
2023/05/23 00:24:56;;;;;;;6.13;5.53;;;16.10;99.90;;;;;;5113449;28;20205;-94
2023/05/23 00:27:23;;;;;;;6.40;5.80;;;16.60;99.90;;;;;;5097718;28;20167;-89
2023/05/23 00:29:49;;;;;;;6.10;5.50;;;16.00;99.90;;;;;;5096021;28;20194;-92
2023/05/23 00:32:15;;;;;;;7.20;5.33;;;15.90;99.90;;;;;;5092199;28;20237;-92
2023/05/23 00:34:41;;;;;;;6.90;5.70;;;15.80;99.90;;;;;;5085915;28;20167;-95
2023/05/23 00:37:07;;;;;;;6.17;5.67;;;15.80;99.90;;;;;;5088224;28;20177;-90
2023/05/23 00:39:33;;;;;;;6.10;5.57;;;15.80;99.90;;;;;;5093528;28;20171;-95
2023/05/23 00:42:02;;;;;;;6.37;5.77;;;15.80;99.90;;;;;;5071967;28;20228;-94
2023/05/23 00:44:30;;;;;;;6.07;5.50;;;15.80;99.90;;;;;;5070182;28;20222;-95
2023/05/23 00:46:57;;;;;;;6.03;5.20;;;15.80;99.90;;;;;;5090972;28;20176;-92
2023/05/23 00:49:23;;;;;;;6.23;5.57;;;15.90;99.90;;;;;;5100484;28;20178;-87
2023/05/23 00:51:50;;;;;;;5.93;5.53;;;16.00;99.90;;;;;;5101230;28;20180;-86
2023/05/23 00:54:29;;;;;;;5.97;5.47;;;16.40;99.90;;;;;;5100864;28;20328;-95
2023/05/23 00:56:55;;;;;;;6.70;6.07;;;15.90;99.90;;;;;;5086079;28;20159;-92
2023/05/23 00:59:23;;;;;;;8.93;5.77;;;15.90;99.90;;;;;;5087296;28;20597;-94
2023/05/23 01:01:52;;;;;;;7.43;5.83;;;15.00;99.90;;;;;;5083714;28;20175;-92
2023/05/23 01:04:25;;;;;;;8.23;5.90;;;15.90;99.90;;;;;;5072569;28;20207;-94
2023/05/23 01:06:56;;;;;;;6.57;5.97;;;16.00;99.90;;;;;;5097046;28;20177;-91
2023/05/23 01:09:47;;;;;;;6.23;5.73;;;15.90;99.90;;;;;;5095022;28;20167;-89
2023/05/23 01:13:07;;;;;;;5.90;5.40;;;16.80;99.90;;;;;;5092407;28;20181;-93
2023/05/23 01:15:55;;;;;;;6.43;5.73;;;16.30;99.90;;;;;;5090464;28;20190;-91
2023/05/23 01:18:47;;;;;;;6.20;5.57;;;16.20;99.90;;;;;;5088814;28;20179;-94
2023/05/23 01:21:18;;;;;;;7.23;5.47;;;15.70;99.90;;;;;;5090375;28;20183;-90
2023/05/23 01:24:42;;;;;;;6.40;5.80;;;15.90;99.90;;;;;;5071790;28;20194;-90
2023/05/23 01:27:36;;;;;;;5.83;5.30;;;17.10;99.90;;;;;;5019999;28;20192;-93
2023/05/23 01:30:07;;;;;;;6.00;5.50;;;15.40;99.90;;;;;;5030592;28;20668;-94
2023/05/23 01:32:34;;;;;;;6.17;5.67;;;15.80;99.90;;;;;;5026013;28;20221;-93
2023/05/23 01:35:00;;;;;;;6.97;5.70;;;16.00;99.90;;;;;;5006190;28;20185;-94
2023/05/23 01:37:28;;;;;;;8.27;5.47;;;15.30;99.90;;;;;;5022685;28;20223;-93
2023/05/23 01:39:54;;;;;;;5.97;5.40;;;15.80;99.90;;;;;;5021607;28;20178;-90
2023/05/23 01:42:21;;;;;;;6.03;5.43;;;15.70;99.90;;;;;;5021192;28;20194;-93
2023/05/23 01:44:47;;;;;;;6.00;5.50;;;15.60;99.90;;;;;;5010471;28;20199;-92
2023/05/23 01:47:14;;;;;;;6.43;5.70;;;15.60;99.90;;;;;;5002358;28;20240;-91
2023/05/23 01:49:43;;;;;;;5.53;5.13;;;15.50;99.90;;;;;;5033365;28;20196;-89
2023/05/23 01:52:10;;;;;;;7.40;5.43;;;15.50;99.90;;;;;;5028979;28;20222;-91
2023/05/23 01:54:41;;;;;;;6.20;5.60;;;15.40;99.90;;;;;;5027220;28;20176;-88
2023/05/23 01:57:07;;;;;;;6.23;5.63;;;15.40;99.90;;;;;;5036842;28;20172;-89
2023/05/23 01:59:33;;;;;;;5.63;5.13;;;15.40;99.90;;;;;;5037640;28;20196;-89
2023/05/23 02:01:59;;;;;;;6.33;5.47;;;15.50;99.90;;;;;;5047970;28;20183;-89
2023/05/23 02:04:27;;;;;;;6.30;5.80;;;15.50;99.90;;;;;;5087139;28;20199;-91
2023/05/23 02:06:52;;;;;;;7.60;5.57;;;15.50;99.90;;;;;;5084009;28;20187;-94
2023/05/23 02:09:20;;;;;;;6.10;5.60;;;15.40;99.90;;;;;;5083436;28;20197;-94
2023/05/23 02:11:45;;;;;;;6.07;5.33;;;14.70;99.90;;;;;;5069852;28;20181;-92
2023/05/23 02:14:11;;;;;;;6.07;5.47;;;15.40;99.90;;;;;;5097750;28;20186;-87
2023/05/23 02:16:37;;;;;;;6.33;5.73;;;15.40;99.90;;;;;;5097876;28;20184;-89
2023/05/23 02:19:03;;;;;;;5.93;5.40;;;15.30;99.90;;;;;;5093754;28;20191;-93
2023/05/23 02:21:30;;;;;;;6.10;5.60;;;15.20;99.90;;;;;;5068730;28;20180;-88
2023/05/23 02:23:56;;;;;;;6.90;5.77;;;15.30;99.90;;;;;;5092021;28;20184;-87
2023/05/23 02:26:22;;;;;;;6.13;5.53;;;15.30;99.90;;;;;;5093968;28;20176;-87
2023/05/23 02:28:47;;;;;;;6.50;5.90;;;15.20;99.90;;;;;;5084811;28;20194;-96
2023/05/23 02:31:13;;;;;;;7.77;5.57;;;15.10;99.90;;;;;;5082683;28;20259;-91
2023/05/23 02:33:39;;;;;;;5.93;5.47;;;15.10;99.90;;;;;;5091036;28;20151;-91
2023/05/23 02:36:06;;;;;;;6.17;5.60;;;15.10;99.90;;;;;;5093101;28;20167;-87
2023/05/23 02:38:32;;;;;;;6.03;5.43;;;15.10;99.90;;;;;;5076099;28;20228;-88
2023/05/23 02:40:59;;;;;;;7.50;6.13;;;15.10;99.90;;;;;;5092485;28;20200;-91
2023/05/23 02:43:25;;;;;;;8.50;6.70;;;15.10;99.90;;;;;;5075684;28;20245;-88
2023/05/23 02:45:51;;;;;;;6.30;5.80;;;15.10;99.90;;;;;;5096918;28;20191;-88
2023/05/23 02:48:18;;;;;;;7.87;6.20;;;15.10;99.90;;;;;;5092295;28;20186;-87
2023/05/23 02:50:43;;;;;;;6.10;5.57;;;15.10;99.90;;;;;;5089317;28;20175;-93
2023/05/23 02:53:09;;;;;;;6.37;5.87;;;15.10;99.90;;;;;;5081170;28;20170;-90
2023/05/23 02:55:35;;;;;;;7.10;6.10;;;15.10;99.90;;;;;;5063139;28;20213;-92
2023/05/23 02:58:04;;;;;;;6.60;6.00;;;15.10;99.90;;;;;;5080507;28;20251;-94
2023/05/23 03:00:33;;;;;;;6.33;5.60;;;15.10;99.90;;;;;;5085440;28;20171;-92
2023/05/23 03:02:59;;;;;;;6.00;5.33;;;15.30;99.90;;;;;;5072450;28;20263;-93
2023/05/23 03:05:25;;;;;;;6.43;5.93;;;15.00;99.90;;;;;;5086483;28;20231;-93
2023/05/23 03:07:53;;;;;;;6.43;5.87;;;14.90;99.90;;;;;;5088857;28;20167;-92
2023/05/23 03:10:20;;;;;;;7.83;6.07;;;14.80;99.90;;;;;;5088628;28;20241;-95
2023/05/23 03:12:46;;;;;;;6.47;5.97;;;14.90;99.90;;;;;;5085205;28;20175;-96
2023/05/23 03:15:12;;;;;;;6.20;5.70;;;14.90;99.90;;;;;;5084257;28;20249;-96
2023/05/23 03:17:38;;;;;;;8.20;6.43;;;14.80;99.90;;;;;;5081578;28;20178;-96
2023/05/23 03:20:08;;;;;;;6.87;6.27;;;14.80;99.90;;;;;;5051442;28;20183;-88
2023/05/23 03:22:34;;;;;;;7.57;6.87;;;14.80;99.90;;;;;;5095101;28;20168;-92
2023/05/23 03:25:00;;;;;;;7.07;6.37;;;15.30;99.90;;;;;;5086271;28;20226;-94
2023/05/23 03:27:26;;;;;;;7.37;6.30;;;14.80;99.90;;;;;;5082459;28;20175;-94
2023/05/23 03:29:52;;;;;;;7.67;6.90;;;14.90;99.90;;;;;;5090674;28;20182;-92
2023/05/23 03:32:17;;;;;;;7.30;6.60;;;14.90;99.90;;;;;;5097364;28;20249;-94
2023/05/23 03:34:43;;;;;;;8.53;6.60;;;14.90;99.90;;;;;;5097524;28;20192;-87
2023/05/23 03:37:10;;;;;;;7.87;5.60;;;15.40;99.90;;;;;;5094583;28;20171;-91
2023/05/23 03:39:36;;;;;;;8.13;7.03;;;15.00;99.90;;;;;;5097475;28;20178;-87
2023/05/23 03:42:04;;;;;;;12.33;6.93;;;15.10;99.90;;;;;;5097530;28;20242;-89
2023/05/23 03:44:29;;;;;;;7.77;6.70;;;15.10;99.90;;;;;;5076160;28;20212;-89
2023/05/23 03:46:55;;;;;;;7.73;6.50;;;15.10;99.90;;;;;;5080675;28;20174;-93
2023/05/23 03:49:21;;;;;;;7.67;6.87;;;15.10;99.90;;;;;;5081595;28;20193;-93
2023/05/23 03:51:47;;;;;;;8.90;7.13;;;15.10;99.90;;;;;;5098408;28;20178;-91
2023/05/23 03:54:13;;;;;;;7.17;6.47;;;15.20;99.90;;;;;;5083171;28;20178;-92
2023/05/23 03:56:39;;;;;;;7.20;6.50;;;15.10;99.90;;;;;;5105023;28;20221;-93
2023/05/23 03:59:06;;;;;;;8.07;7.10;;;14.20;99.90;;;;;;5090621;28;20184;-92
2023/05/23 04:01:32;;;;;;;7.00;6.30;;;15.10;99.90;;;;;;5116914;28;20211;-90
2023/05/23 04:03:59;;;;;;;8.00;6.20;;;15.10;99.90;;;;;;5117557;28;20172;-89
2023/05/23 04:06:25;;;;;;;7.37;6.50;;;15.20;99.90;;;;;;5111589;28;20167;-92
2023/05/23 04:08:50;;;;;;;7.67;6.67;;;15.10;99.90;;;;;;5111173;28;20624;-91
2023/05/23 04:11:16;;;;;;;6.87;6.23;;;15.20;99.90;;;;;;5116799;28;20174;-91
2023/05/23 04:13:42;;;;;;;7.13;5.90;;;15.20;99.90;;;;;;5106222;28;20171;-94
2023/05/23 04:16:10;;;;;;;6.57;5.63;;;15.20;99.90;;;;;;5085439;28;20171;-93
2023/05/23 04:18:37;;;;;;;6.63;5.97;;;15.40;99.90;;;;;;5104996;28;20351;-93
2023/05/23 04:21:04;;;;;;;7.10;6.43;;;15.30;99.90;;;;;;5110181;28;20171;-89
2023/05/23 04:23:29;;;;;;;7.17;6.47;;;15.20;99.90;;;;;;5112032;28;20182;-88
2023/05/23 04:25:56;;;;;;;7.90;5.93;;;15.40;99.90;;;;;;5116969;28;20654;-88
2023/05/23 04:28:23;;;;;;;8.17;6.73;;;15.50;99.90;;;;;;5114056;28;20171;-92
2023/05/23 04:30:49;;;;;;;8.47;6.60;;;15.40;99.90;;;;;;5094673;28;20640;-94
2023/05/23 04:33:18;;;;;;;9.40;6.30;;;15.00;99.90;;;;;;5127827;28;20162;-92
2023/05/23 04:35:44;;;;;;;7.47;6.77;;;15.40;99.90;;;;;;5131765;28;20175;-88
2023/05/23 04:38:12;;;;;;;6.83;6.10;;;15.40;99.90;;;;;;5107940;28;20184;-93
2023/05/23 04:40:38;;;;;;;6.40;5.90;;;16.00;99.90;;;;;;5089295;28;20698;-91
2023/05/23 04:43:04;;;;;;;8.23;6.43;;;15.50;99.90;;;;;;5111339;28;20184;-93
2023/05/23 04:45:32;;;;;;;8.00;6.63;;;16.00;99.90;;;;;;5129589;28;20205;-96
2023/05/23 04:47:58;;;;;;;7.53;6.83;;;15.60;99.90;;;;;;5104995;28;20179;-91
2023/05/23 04:50:24;;;;;;;7.10;6.37;;;15.70;99.90;;;;;;5107821;28;20183;-91
2023/05/23 04:52:50;;;;;;;7.53;6.30;;;15.70;99.90;;;;;;5092195;28;20178;-94
2023/05/23 04:55:16;;;;;;;10.50;6.93;;;15.80;99.90;;;;;;5095021;28;20175;-92
2023/05/23 04:57:42;;;;;;;9.60;6.80;;;15.80;99.90;;;;;;5100187;28;20663;-94
2023/05/23 05:00:11;;;;;;;7.87;6.50;;;15.80;99.90;;;;;;5099487;28;20240;-94
2023/05/23 05:02:38;;;;;;;7.00;6.37;;;15.90;99.90;;;;;;5115244;28;20170;-91
2023/05/23 05:05:05;;;;;;;7.23;6.53;;;16.00;99.90;;;;;;5119852;28;20193;-88
2023/05/23 05:07:30;;;;;;;8.43;6.87;;;16.10;99.90;;;;;;5103311;28;20174;-90
2023/05/23 05:09:56;;;;;;;7.63;6.63;;;16.20;99.90;;;;;;5097502;28;20182;-91
2023/05/23 05:12:23;;;;;;;6.83;6.17;;;16.80;99.90;;;;;;5087586;28;20180;-87
2023/05/23 05:14:48;;;;;;;6.80;6.20;;;16.40;99.90;;;;;;5074797;28;20170;-96
2023/05/23 05:17:14;;;;;;;7.03;6.40;;;16.50;99.90;;;;;;5106542;28;20181;-89
2023/05/23 05:19:40;;;;;;;7.73;6.70;;;16.60;99.90;;;;;;5113076;28;20195;-90
2023/05/23 05:22:06;;;;;;;9.33;6.20;;;16.70;99.90;;;;;;5103360;28;20186;-87
2023/05/23 05:24:32;;;;;;;11.27;6.37;;;16.80;99.90;;;;;;5106601;28;20203;-91
2023/05/23 05:26:58;;;;;;;11.27;6.57;;;16.80;99.90;;;;;;5084101;28;20177;-88
2023/05/23 05:29:25;;;;;;;7.13;6.43;;;17.00;99.90;;;;;;5102870;28;20185;-92
2023/05/23 05:31:52;;;;;;;8.23;6.33;;;17.20;99.90;;;;;;5095600;28;20221;-89
2023/05/23 05:34:18;;;;;;;6.33;5.73;;;17.20;99.90;;;;;;5084309;28;20179;-89
2023/05/23 05:36:47;;;;;;;7.33;6.50;;;17.30;99.90;;;;;;5081491;28;20171;-89
2023/05/23 05:39:13;;;;;;;7.50;6.13;;;17.40;99.90;;;;;;5070812;28;20177;-88
2023/05/23 05:41:39;;;;;;;8.03;6.13;;;17.50;99.90;;;;;;5079037;28;20175;-89
2023/05/23 05:44:06;;;;;;;10.30;7.50;;;17.60;99.90;;;;;;5060983;28;20187;-90
2023/05/23 05:46:32;;;;;;;9.97;7.13;;;17.70;99.90;;;;;;5059073;28;20171;-92
2023/05/23 05:48:57;;;;;;;7.17;6.13;;;17.80;99.90;;;;;;5076678;28;20178;-91
2023/05/23 05:51:23;;;;;;;7.67;6.17;;;17.80;99.90;;;;;;5076589;28;20683;-90
2023/05/23 05:53:49;;;;;;;6.87;6.17;;;17.90;99.90;;;;;;5058695;28;20178;-93
2023/05/23 05:56:15;;;;;;;6.73;6.03;;;16.70;99.90;;;;;;5059027;28;20547;-91
2023/05/23 05:58:41;;;;;;;7.57;6.07;;;18.20;99.90;;;;;;5059358;28;20179;-91
2023/05/23 06:01:07;;;;;;;5.77;5.27;;;18.30;99.90;;;;;;5077198;28;20232;-92
2023/05/23 06:03:34;;;;;;;6.63;5.60;;;18.30;99.90;;;;;;5079925;28;20266;-91
2023/05/23 06:05:59;;;;;;;6.43;5.83;;;18.20;99.90;;;;;;5062019;28;20261;-91
2023/05/23 06:08:25;;;;;;;6.70;5.93;;;18.30;99.90;;;;;;5082919;28;20171;-88
2023/05/23 06:10:51;;;;;;;7.00;6.27;;;18.30;99.90;;;;;;5067531;28;20554;-87
2023/05/23 06:13:17;;;;;;;6.07;5.57;;;18.40;99.90;;;;;;5094105;28;20206;-88
2023/05/23 06:15:43;;;;;;;6.27;5.67;;;18.50;99.90;;;;;;5079087;28;20629;-91
2023/05/23 06:18:10;;;;;;;8.90;6.50;;;18.60;99.90;;;;;;5082903;28;20174;-91
2023/05/23 06:20:35;;;;;;;7.10;5.90;;;18.70;99.90;;;;;;5083490;28;20171;-91
2023/05/23 06:23:04;;;;;;;8.00;5.47;;;18.70;99.90;;;;;;5076752;28;20209;-89
2023/05/23 06:25:30;;;;;;;6.27;5.67;;;18.70;99.90;;;;;;5092194;28;20199;-91
2023/05/23 06:27:56;;;;;;;7.73;5.70;;;18.80;99.90;;;;;;5068013;28;20191;-91
2023/05/23 06:30:29;;;;;;;6.13;5.53;;;18.90;99.90;;;;;;5073772;28;20269;-88
2023/05/23 06:32:54;;;;;;;5.80;5.30;;;19.00;99.90;;;;;;5078702;28;20168;-89
2023/05/23 06:35:23;;;;;;;5.87;5.23;;;19.20;99.90;;;;;;5092690;28;20191;-88
2023/05/23 06:37:48;;;;;;;6.13;5.43;;;19.20;99.90;;;;;;5073727;28;20238;-91
2023/05/23 06:40:14;;;;;;;7.07;5.37;;;19.40;99.90;;;;;;5069092;28;20594;-87
2023/05/23 06:42:41;;;;;;;7.30;5.97;;;19.50;99.90;;;;;;5082949;28;20208;-85
2023/05/23 06:45:07;;;;;;;6.50;5.90;;;20.00;99.90;;;;;;5109344;28;20703;-87
2023/05/23 06:47:33;;;;;;;7.80;5.83;;;17.60;99.90;;;;;;5083627;28;20214;-88
2023/05/23 06:49:59;;;;;;;6.10;5.50;;;19.70;99.90;;;;;;5097165;28;20185;-88
2023/05/23 06:52:24;;;;;;;5.80;5.23;;;19.90;99.90;;;;;;5105966;28;20193;-90
2023/05/23 06:54:50;;;;;;;5.63;5.13;;;20.10;99.90;;;;;;5122629;28;20529;-88
2023/05/23 06:57:16;;;;;;;6.50;5.67;;;20.20;99.90;;;;;;5115805;28;20731;-89
2023/05/23 06:59:42;;;;;;;5.53;5.03;;;20.40;99.90;;;;;;5121407;28;20178;-89
2023/05/23 07:02:07;;;;;;;6.23;4.97;;;20.50;99.90;;;;;;5104142;28;20188;-89
2023/05/23 07:04:33;;;;;;;6.90;5.30;;;20.60;99.90;;;;;;5097644;28;20269;-90
2023/05/23 07:06:59;;;;;;;5.83;5.30;;;20.80;99.90;;;;;;5118548;28;20227;-91
2023/05/23 07:09:25;;;;;;;6.63;5.50;;;20.80;99.90;;;;;;5101493;28;20174;-89
2023/05/23 07:11:50;;;;;;;7.43;5.50;;;20.90;99.90;;;;;;5129792;28;20174;-89
2023/05/23 07:14:16;;;;;;;5.57;5.07;;;21.00;99.90;;;;;;5123359;28;20169;-91
2023/05/23 07:16:42;;;;;;;5.80;5.20;;;21.30;99.90;;;;;;5122543;28;20226;-88
2023/05/23 07:19:08;;;;;;;5.83;5.27;;;21.50;99.90;;;;;;5119715;28;20188;-90
2023/05/23 07:21:33;;;;;;;6.80;5.20;;;21.60;99.90;;;;;;5115026;28;20222;-89
2023/05/23 07:23:59;;;;;;;9.40;6.93;;;21.70;99.90;;;;;;5116862;28;20170;-86
2023/05/23 07:26:26;;;;;;;9.33;6.37;;;21.80;99.90;;;;;;5082509;28;20205;-88
2023/05/23 07:28:52;;;;;;;8.93;6.93;;;21.90;99.90;;;;;;5097535;28;20207;-89
2023/05/23 07:31:17;;;;;;;7.80;6.80;;;21.90;99.90;;;;;;5087695;28;20249;-90
2023/05/23 07:33:43;;;;;;;8.13;7.20;;;22.00;99.90;;;;;;5076440;28;20872;-88
2023/05/23 07:36:11;;;;;;;10.50;7.77;;;21.90;99.90;;;;;;5073971;28;20163;-90
2023/05/23 07:38:37;;;;;;;8.63;7.20;;;21.90;99.90;;;;;;5074415;28;20551;-90
2023/05/23 07:41:02;;;;;;;8.52;6.53;;;22.60;99.90;;;;;;5074330;28;20623;-90
2023/05/23 07:43:28;;;;;;;10.43;7.28;;;22.10;99.90;;;;;;5080316;28;20191;-89
2023/05/23 07:45:54;;;;;;;9.35;7.63;;;22.20;99.90;;;;;;5084562;28;20210;-87
2023/05/23 07:48:20;;;;;;;11.00;7.03;;;22.20;99.90;;;;;;5096777;28;20174;-90
2023/05/23 07:50:46;;;;;;;11.40;7.00;;;22.30;99.90;;;;;;5100957;28;20177;-90
2023/05/23 07:53:12;;;;;;;8.80;6.10;;;22.40;99.90;;;;;;5112869;28;20184;-88
2023/05/23 07:55:40;;;;;;;11.00;6.53;;;22.40;99.90;;;;;;5120765;28;20186;-87
2023/05/23 07:58:06;;;;;;;6.93;6.07;;;22.20;99.90;;;;;;5139001;28;20161;-84
2023/05/23 08:00:31;;;;;;;7.43;6.10;;;22.20;99.90;;;;;;5106023;28;20197;-90
2023/05/23 08:02:58;;;;;;;10.18;7.07;;;22.30;99.90;;;;;;5119423;28;20184;-90
2023/05/23 08:05:23;;;;;;;9.68;6.80;;;22.40;99.90;;;;;;5118577;28;20197;-89
2023/05/23 08:07:49;;;;;;;6.13;5.47;;;22.50;99.90;;;;;;5106013;28;20174;-89
2023/05/23 08:10:15;;;;;;;9.07;6.18;;;22.80;99.90;;;;;;5115406;28;20233;-87
2023/05/23 08:12:41;;;;;;;6.47;5.88;;;22.70;99.90;;;;;;5122450;28;20180;-88
2023/05/23 08:15:07;;;;;;;6.53;5.90;;;22.70;99.90;;;;;;5119272;28;20245;-88
2023/05/23 08:17:33;;;;;;;11.60;6.15;;;22.80;99.90;;;;;;5108695;28;20660;-86
2023/05/23 08:20:00;;;;;;;8.60;7.40;;;22.90;99.90;;;;;;5137000;28;20229;-89
2023/05/23 08:22:25;;;;;;;7.68;6.32;;;22.80;99.90;;;;;;5123806;28;20158;-90
2023/05/23 08:24:51;;;;;;;8.85;6.03;;;22.80;99.90;;;;;;5099485;28;20208;-88
2023/05/23 08:27:17;;;;;;;11.25;5.90;;;22.90;99.90;;;;;;5082544;28;20178;-87
2023/05/23 08:29:43;;;;;;;7.25;5.93;;;23.00;99.90;;;;;;5118024;28;20174;-88
2023/05/23 08:32:08;;;;;;;5.97;5.53;;;23.00;99.90;;;;;;5109666;28;20588;-89
2023/05/23 08:34:34;;;;;;;6.78;5.93;;;23.20;99.90;;;;;;5115896;28;20637;-88
2023/05/23 08:37:00;;;;;;;7.00;6.20;;;23.30;99.90;;;;;;5117458;28;20606;-88
2023/05/23 08:39:26;;;;;;;8.55;6.28;;;23.30;99.90;;;;;;5117069;28;20174;-88
2023/05/23 08:41:51;;;;;;;7.80;6.38;;;23.40;99.90;;;;;;5116003;28;20181;-88
2023/05/23 08:44:17;;;;;;;7.45;6.45;;;23.60;99.90;;;;;;5117015;28;20244;-89
2023/05/23 08:46:48;;;;;;;7.25;6.35;;;23.70;99.90;;;;;;5117271;28;20227;-87
2023/05/23 08:49:17;;;;;;;6.70;5.97;;;23.70;99.90;;;;;;5083495;28;20183;-88
2023/05/23 08:51:43;;;;;;;6.47;5.88;;;23.90;99.90;;;;;;5077115;28;20185;-90
2023/05/23 08:54:14;;;;;;;6.28;5.60;;;23.80;99.90;;;;;;5074242;28;20175;-90
2023/05/23 08:56:40;;;;;;;6.72;5.60;;;23.70;99.90;;;;;;5078847;28;20205;-86
2023/05/23 08:59:08;;;;;;;6.85;6.15;;;23.70;99.90;;;;;;5082604;28;20175;-89
2023/05/23 09:01:35;;;;;;;6.28;5.70;;;23.70;99.90;;;;;;5077264;28;20652;-90
2023/05/23 09:04:03;;;;;;;7.60;6.00;;;23.80;99.90;;;;;;5076117;28;20174;-91
2023/05/23 09:06:31;;;;;;;8.05;6.00;;;23.60;99.90;;;;;;5076443;28;20210;-88
2023/05/23 09:08:57;;;;;;;6.57;5.97;;;24.20;99.90;;;;;;5078066;28;20175;-89
2023/05/23 09:11:23;;;;;;;5.97;5.55;;;24.30;99.90;;;;;;5076958;28;20182;-89
2023/05/23 09:13:49;;;;;;;6.78;5.47;;;24.40;99.90;;;;;;5081045;28;20185;-91
2023/05/23 09:16:19;;;;;;;6.07;5.40;;;24.50;99.90;;;;;;5079343;28;20266;-89
2023/05/23 09:18:45;;;;;;;6.20;5.70;;;24.50;99.90;;;;;;5078272;28;20171;-89
2023/05/23 09:21:12;;;;;;;7.00;5.90;;;24.70;99.90;;;;;;5089868;28;20171;-87
2023/05/23 09:23:39;;;;;;;6.65;5.25;;;24.70;99.90;;;;;;5088770;28;20179;-89
2023/05/23 09:26:09;;;;;;;7.25;5.80;;;24.70;99.90;;;;;;5078467;28;20651;-90
2023/05/23 09:28:37;;;;;;;6.80;5.70;;;24.60;99.90;;;;;;5077446;28;20205;-91
2023/05/23 09:31:07;;;;;;;6.15;5.65;;;24.60;99.90;;;;;;5087372;28;20229;-90
2023/05/23 09:33:44;;;;;;;5.93;5.50;;;24.80;99.90;;;;;;5104420;28;20224;-90
2023/05/23 09:36:10;;;;;;;5.85;5.40;;;25.70;99.90;;;;;;5120880;28;20170;-90
2023/05/23 09:38:44;;;;;;;6.70;6.05;;;25.00;99.90;;;;;;5110013;28;20208;-90
2023/05/23 09:41:12;;;;;;;7.78;6.07;;;25.10;99.90;;;;;;5101609;28;20200;-89
2023/05/23 09:43:58;;;;;;;5.97;5.50;;;25.20;99.90;;;;;;5111026;28;20174;-91
2023/05/23 09:46:27;;;;;;;7.95;5.97;;;25.30;99.90;;;;;;5104085;28;20194;-91
2023/05/23 09:48:54;;;;;;;6.07;5.57;;;25.50;99.90;;;;;;5113571;27;20640;-90
2023/05/23 09:51:22;;;;;;;6.03;5.43;;;25.70;99.90;;;;;;5118989;27;20183;-90
2023/05/23 09:53:49;;;;;;;6.15;5.50;;;25.90;99.70;;;;;;5120486;27;20214;-92
2023/05/23 09:56:18;;;;;;;5.80;5.40;;;25.90;98.30;;;;;;5137250;27;20185;-89
2023/05/23 09:58:48;;;;;;;6.10;5.60;;;26.00;98.50;;;;;;5122430;27;20173;-90
2023/05/23 10:01:15;;;;;;;6.00;5.40;;;25.70;98.90;;;;;;5123609;27;20701;-90
2023/05/23 10:03:49;;;;;;;5.93;5.43;;;25.60;98.00;;;;;;5124822;27;20169;-88
2023/05/23 10:06:42;;;;;;;5.90;5.40;;;25.50;97.80;;;;;;5132305;27;20181;-89
2023/05/23 10:09:16;;;;;;;7.18;5.65;;;25.60;97.90;;;;;;5132444;27;20202;-89
2023/05/23 10:12:24;;;;;;;6.45;5.75;;;25.70;97.70;;;;;;5126849;27;20233;-89
2023/05/23 10:14:54;;;;;;;6.28;5.63;;;25.80;97.90;;;;;;5123176;27;20177;-90
2023/05/23 10:17:39;;;;;;;6.78;6.13;;;26.10;98.50;;;;;;5120053;27;20165;-89
2023/05/23 10:20:11;;;;;;;6.30;5.70;;;26.10;97.90;;;;;;5150593;27;20161;-88
2023/05/23 10:22:37;;;;;;;5.78;5.28;;;26.30;97.80;;;;;;5129472;27;20169;-92
2023/05/23 10:25:10;;;;;;;6.20;5.60;;;26.50;96.40;;;;;;5138503;27;20197;-89
2023/05/23 10:27:39;;;;;;;5.68;5.22;;;26.50;96.60;;;;;;5119437;27;20194;-89
2023/05/23 10:30:07;;;;;;;6.22;5.63;;;26.70;97.50;;;;;;5124394;27;20224;-87
2023/05/23 10:32:34;;;;;;;5.88;5.38;;;26.80;96.70;;;;;;5105641;28;20689;-90
2023/05/23 10:35:08;;;;;;;5.70;5.30;;;26.80;96.10;;;;;;5097662;28;20188;-89
2023/05/23 10:38:12;;;;;;;6.53;5.30;;;26.90;95.70;;;;;;5098192;28;20634;-89
2023/05/23 10:40:52;;;;;;;5.57;5.18;;;26.70;95.60;;;;;;5117663;28;20156;-88
2023/05/23 10:43:39;;;;;;;6.32;5.72;;;26.30;96.30;;;;;;5106329;28;20173;-90
2023/05/23 10:46:11;;;;;;;7.05;5.72;;;26.10;96.70;;;;;;5116389;28;20227;-86
2023/05/23 10:48:43;;;;;;;7.55;5.95;;;26.10;97.50;;;;;;5129843;28;20166;-89
2023/05/23 10:51:11;;;;;;;5.75;5.25;;;26.10;97.50;;;;;;5104013;28;20182;-89
2023/05/23 10:53:42;;;;;;;6.38;5.78;;;26.10;96.40;;;;;;5110522;28;20170;-88
2023/05/23 10:56:17;;;;;;;11.65;5.90;;;26.40;96.60;;;;;;5103787;28;20204;-90
2023/05/23 10:58:43;;;;;;;6.18;5.57;;;27.60;96.40;;;;;;5102979;28;20177;-91
2023/05/23 11:01:12;;;;;;;6.47;5.80;;;26.80;95.70;;;;;;5106414;28;20173;-89
2023/05/23 11:03:46;;;;;;;5.65;5.25;;;27.50;95.00;;;;;;5117187;28;20169;-90
2023/05/23 11:06:41;;;;;;;6.70;5.25;;;27.10;93.40;;;;;;5096672;28;20216;-91
2023/05/23 11:09:12;;;;;;;5.93;5.53;;;27.20;94.30;;;;;;5094591;28;20215;-89
2023/05/23 11:11:53;;;;;;;5.85;5.43;;;27.10;94.40;;;;;;5096961;28;20177;-90
2023/05/23 11:14:30;;;;;;;5.95;5.47;;;26.90;94.00;;;;;;5115295;28;20165;-90
2023/05/23 11:16:56;;;;;;;5.88;5.30;;;26.50;94.40;;;;;;5096020;28;20165;-87
2023/05/23 11:19:24;;;;;;;5.65;5.15;;;26.30;94.60;;;;;;5126104;28;20170;-89
2023/05/23 11:22:08;;;;;;;5.63;5.05;;;26.10;94.30;;;;;;5127278;28;20649;-89
2023/05/23 11:24:51;;;;;;;5.95;5.45;;;25.80;93.50;;;;;;5117216;28;20194;-90
2023/05/23 11:27:34;;;;;;;7.85;5.68;;;25.60;94.40;;;;;;5097686;28;20190;-89
2023/05/23 11:30:15;;;;;;;5.68;5.18;;;25.70;94.40;;;;;;5103012;28;20248;-88
2023/05/23 11:32:42;;;;;;;5.55;5.15;;;25.70;93.90;;;;;;5127427;28;20216;-90
2023/05/23 11:35:09;;;;;;;5.53;5.07;;;25.60;93.80;;;;;;5100567;28;20188;-90
2023/05/23 11:37:37;;;;;;;6.80;6.20;;;25.60;94.50;;;;;;5117227;28;20195;-89
2023/05/23 11:40:28;;;;;;;5.45;4.95;;;25.60;94.90;;;;;;5104064;28;20282;-89
2023/05/23 11:42:55;;;;;;;5.85;5.13;;;25.50;94.70;;;;;;5121030;28;20212;-87
2023/05/23 11:45:25;;;;;;;4.82;4.43;;;25.40;94.50;;;;;;5098235;28;20216;-88
2023/05/23 11:47:51;;;;;;;6.10;4.35;;;25.30;93.60;;;;;;5101037;28;20181;-90
2023/05/23 11:50:19;;;;;;;5.40;4.22;;;24.50;96.50;;;;;;5103723;28;20185;-89
2023/05/23 11:52:50;;;;;;;4.13;3.83;;;22.70;99.90;;;;;;5100111;28;20231;-89
2023/05/23 11:55:21;;;;;;;3.30;3.10;;;20.80;99.90;;;;;;5098024;28;20530;-89
2023/05/23 11:57:47;;;;;;;4.33;3.70;;;19.30;99.90;;;;;;5102889;28;20155;-83
2023/05/23 12:00:14;;;;;;;4.20;3.80;;;18.20;99.90;;;;;;5102329;28;20177;-85
2023/05/23 12:02:44;;;;;;;3.80;3.57;;;17.60;99.90;;;;;;5077854;28;20174;-85
2023/05/23 12:05:12;;;;;;;3.27;3.07;;;17.60;99.90;;;;;;5075786;28;20200;-84
2023/05/23 12:07:40;;;;;;;3.80;3.50;;;17.60;99.90;;;;;;5077540;28;20212;-85
2023/05/23 12:10:08;;;;;;;4.70;4.17;;;17.20;99.90;;;;;;5084232;28;20186;-83
2023/05/23 12:12:34;;;;;;;3.50;3.20;;;17.50;99.90;;;;;;5087606;28;20198;-81
2023/05/23 12:15:00;;;;;;;3.33;3.00;;;16.50;99.90;;;;;;5079670;28;20182;-85
2023/05/23 12:17:26;;;;;;;3.63;2.73;;;16.50;99.90;;;;;;5100378;28;20262;-85
2023/05/23 12:19:53;;;;;;;3.93;3.63;;;16.70;99.90;;;;;;5083850;28;20205;-83
2023/05/23 12:22:25;;;;;;;3.90;3.60;;;16.90;99.90;;;;;;5089028;28;20185;-86
2023/05/23 12:24:56;;;;;;;7.70;3.70;;;16.90;99.90;;;;;;5096190;28;20210;-86
2023/05/23 12:27:30;;;;;;;3.97;3.67;;;17.10;99.90;;;;;;5080985;28;20182;-85
2023/05/23 12:30:10;;;;;;;4.90;3.97;;;17.10;99.90;;;;;;5097698;28;20659;-86
2023/05/23 12:32:45;;;;;;;4.17;3.87;;;17.10;99.90;;;;;;5076509;28;20218;-85
2023/05/23 12:35:15;;;;;;;4.30;4.00;;;17.10;99.90;;;;;;5076330;28;20194;-85
2023/05/23 12:37:44;;;;;;;4.70;4.20;;;16.90;99.90;;;;;;5075140;28;20167;-85
2023/05/23 12:40:19;;;;;;;9.97;6.47;;;16.90;99.90;;;;;;5075255;28;20171;-86
2023/05/23 12:42:52;;;;;;;6.00;4.87;;;16.90;99.90;;;;;;5074967;28;20167;-86
2023/05/23 12:45:23;;;;;;;5.53;4.87;;;16.90;99.90;;;;;;5074876;28;20209;-87
2023/05/23 12:47:49;;;;;;;5.27;4.77;;;17.00;99.90;;;;;;5084121;28;20177;-86
2023/05/23 12:50:15;;;;;;;6.03;4.80;;;18.10;99.90;;;;;;5116387;28;20178;-85
2023/05/23 12:52:41;;;;;;;6.17;4.87;;;17.20;99.90;;;;;;5116146;28;20180;-86